Time;durP1;ratioP1;P1;durP2;ratioP2;P2;SDS_P1;SDS_P2;PMS_P1;PMS_P2;Temp;Humidity;BMP_temperature;BMP_pressure;BME280_temperature;BME280_humidity;BME280_pressure;Samples;Min_cycle;Max_cycle;Signal;HPM_P1;HPM_P2
2022/10/27 00:00:42;;;;;;;18.73;16.73;;;13.10;93.50;;;;;;5053808;28;20435;-45
2022/10/27 00:03:12;;;;;;;18.42;16.45;;;13.10;93.50;;;;;;5052880;28;20569;-46
2022/10/27 00:05:39;;;;;;;18.23;15.95;;;13.00;93.40;;;;;;5052900;28;20072;-45
2022/10/27 00:08:06;;;;;;;19.23;16.27;;;13.00;93.50;;;;;;5053138;28;20701;-45
2022/10/27 00:10:31;;;;;;;20.67;17.52;;;13.00;93.50;;;;;;5053237;28;20025;-46
2022/10/27 00:13:01;;;;;;;18.05;16.13;;;12.90;93.50;;;;;;5053665;28;20040;-45
2022/10/27 00:15:32;;;;;;;20.13;18.02;;;12.90;93.50;;;;;;5052750;28;20029;-46
2022/10/27 00:17:58;;;;;;;20.08;17.45;;;12.90;93.50;;;;;;5053789;28;20335;-46
2022/10/27 00:20:25;;;;;;;19.30;17.15;;;12.90;93.50;;;;;;5053552;28;20025;-45
2022/10/27 00:22:53;;;;;;;19.80;16.70;;;12.90;93.50;;;;;;5042979;28;20025;-46
2022/10/27 00:25:20;;;;;;;19.95;17.02;;;12.90;93.60;;;;;;5053201;28;20028;-45
2022/10/27 00:27:47;;;;;;;22.33;19.25;;;12.90;93.60;;;;;;5051531;28;20025;-46
2022/10/27 00:30:14;;;;;;;19.70;17.67;;;12.90;93.70;;;;;;5052246;28;20369;-46
2022/10/27 00:32:41;;;;;;;19.80;17.70;;;12.90;93.80;;;;;;5052754;28;20013;-46
2022/10/27 00:35:08;;;;;;;23.70;19.40;;;12.90;93.80;;;;;;5035672;28;20029;-46
2022/10/27 00:37:35;;;;;;;20.60;18.50;;;12.90;93.80;;;;;;5052492;28;20028;-47
2022/10/27 00:40:02;;;;;;;19.88;17.33;;;12.90;93.70;;;;;;5053516;28;20040;-46
2022/10/27 00:42:29;;;;;;;19.30;17.17;;;12.80;93.70;;;;;;5052188;28;20037;-46
2022/10/27 00:44:56;;;;;;;19.38;17.42;;;12.80;93.60;;;;;;5052600;28;20032;-46
2022/10/27 00:47:30;;;;;;;22.67;18.13;;;12.80;93.70;;;;;;5052583;28;20116;-47
2022/10/27 00:50:15;;;;;;;18.52;16.50;;;12.70;93.70;;;;;;5051791;28;20047;-46
2022/10/27 00:52:57;;;;;;;22.77;18.25;;;12.70;93.70;;;;;;5052239;28;20029;-46
2022/10/27 00:55:32;;;;;;;21.90;17.02;;;12.70;93.80;;;;;;5051841;28;20032;-47
2022/10/27 00:58:05;;;;;;;19.42;17.35;;;12.70;93.70;;;;;;5052770;28;20033;-47
2022/10/27 01:00:31;;;;;;;22.67;18.88;;;12.70;93.80;;;;;;5051822;28;20389;-46
2022/10/27 01:02:58;;;;;;;25.45;16.85;;;12.70;93.90;;;;;;5035161;28;20072;-47
2022/10/27 01:05:27;;;;;;;21.05;17.85;;;12.70;93.90;;;;;;5051561;28;20039;-49
2022/10/27 01:08:00;;;;;;;22.00;17.77;;;12.70;93.80;;;;;;5051792;28;20100;-47
2022/10/27 01:10:28;;;;;;;19.67;17.25;;;12.60;93.80;;;;;;5046846;28;20175;-47
2022/10/27 01:12:59;;;;;;;22.58;17.38;;;12.60;93.80;;;;;;5032320;28;20022;-49
2022/10/27 01:15:47;;;;;;;20.48;16.27;;;12.60;93.80;;;;;;5040442;28;20316;-47
2022/10/27 01:18:23;;;;;;;18.15;15.98;;;12.50;93.80;;;;;;5037781;28;20048;-47
2022/10/27 01:21:26;;;;;;;22.85;16.48;;;12.50;93.80;;;;;;5056830;28;20025;-47
2022/10/27 01:24:29;;;;;;;18.27;16.40;;;12.50;93.80;;;;;;5048472;28;20112;-47
2022/10/27 01:27:06;;;;;;;17.83;16.02;;;12.50;93.80;;;;;;5055822;28;20033;-47
2022/10/27 01:30:08;;;;;;;21.10;16.13;;;12.40;93.80;;;;;;5056906;28;20021;-50
2022/10/27 01:32:49;;;;;;;21.15;15.52;;;12.40;93.80;;;;;;5056965;28;20029;-47
2022/10/27 01:35:41;;;;;;;16.75;15.05;;;12.40;93.80;;;;;;5055591;28;20028;-49
2022/10/27 01:38:30;;;;;;;19.48;15.88;;;12.40;93.80;;;;;;5047314;28;20034;-48
2022/10/27 01:41:20;;;;;;;19.10;16.20;;;12.40;93.90;;;;;;5055700;28;20028;-48
2022/10/27 01:43:50;;;;;;;18.75;16.83;;;12.40;94.00;;;;;;5056250;28;20325;-47
2022/10/27 01:46:17;;;;;;;;;;;12.50;94.00;;;;;;5056476;28;20025;-48
2022/10/27 01:48:45;;;;;;;22.08;15.82;;;12.40;94.00;;;;;;5056019;28;19916;-48
2022/10/27 01:51:13;;;;;;;23.70;17.17;;;12.50;94.00;;;;;;5054655;28;20029;-49
2022/10/27 01:53:47;;;;;;;19.52;17.42;;;12.40;94.00;;;;;;5056054;28;20488;-47
2022/10/27 01:56:50;;;;;;;23.65;16.85;;;12.40;94.10;;;;;;5036994;28;20095;-49
2022/10/27 01:59:33;;;;;;;27.17;16.10;;;12.40;94.10;;;;;;5036279;28;20040;-50
2022/10/27 02:02:40;;;;;;;20.70;17.23;;;12.40;94.10;;;;;;5050520;28;20041;-48
2022/10/27 02:05:30;;;;;;;22.33;16.75;;;12.40;94.00;;;;;;5043707;28;20065;-49
2022/10/27 02:08:11;;;;;;;;;;;12.40;94.10;;;;;;5046711;28;20431;-49
2022/10/27 02:10:50;;;;;;;20.80;16.50;;;12.40;94.10;;;;;;5055154;28;20280;-48
2022/10/27 02:13:18;;;;;;;20.63;16.05;;;12.30;94.10;;;;;;5018795;28;20025;-53
2022/10/27 02:15:59;;;;;;;18.33;16.40;;;12.30;94.00;;;;;;5046799;28;20025;-51
2022/10/27 02:18:37;;;;;;;20.38;15.52;;;12.30;94.00;;;;;;5055929;28;20060;-50
2022/10/27 02:21:10;;;;;;;19.98;16.58;;;12.20;94.00;;;;;;5054857;28;20044;-49
2022/10/27 02:23:38;;;;;;;21.33;16.40;;;12.20;94.00;;;;;;5054305;28;20025;-49
2022/10/27 02:26:29;;;;;;;22.30;16.70;;;12.10;94.00;;;;;;5055262;28;20028;-52
2022/10/27 02:29:12;;;;;;;19.90;15.43;;;12.10;94.00;;;;;;5055095;28;20314;-50
2022/10/27 02:31:44;;;;;;;20.23;15.68;;;12.10;94.00;;;;;;5054047;28;20032;-48
2022/10/27 02:34:12;;;;;;;19.75;15.38;;;12.10;94.00;;;;;;5053671;28;20025;-49
2022/10/27 02:36:39;;;;;;;22.88;15.93;;;12.00;94.10;;;;;;5055069;28;20036;-53
2022/10/27 02:39:06;;;;;;;21.73;15.25;;;12.00;94.00;;;;;;5038048;28;20108;-51
2022/10/27 02:41:33;;;;;;;21.30;17.75;;;12.00;94.10;;;;;;5049945;28;20120;-49
2022/10/27 02:44:02;;;;;;;20.63;15.93;;;12.00;94.10;;;;;;5016706;28;20096;-55
2022/10/27 02:46:29;;;;;;;24.50;15.85;;;12.00;94.10;;;;;;5031104;28;20575;-54
2022/10/27 02:48:54;;;;;;;19.63;16.00;;;11.90;94.00;;;;;;5055255;28;20118;-52
2022/10/27 02:51:21;;;;;;;19.88;16.13;;;11.90;94.00;;;;;;5054419;28;20322;-50
2022/10/27 02:53:48;;;;;;;19.85;15.70;;;11.90;94.10;;;;;;5055221;28;20138;-51
2022/10/27 02:56:17;;;;;;;20.50;15.82;;;11.90;94.10;;;;;;5029805;28;20026;-53
2022/10/27 02:58:45;;;;;;;18.38;16.50;;;11.90;94.20;;;;;;5031924;28;20037;-54
2022/10/27 03:01:11;;;;;;;21.13;16.23;;;11.90;94.20;;;;;;5017760;28;20037;-51
2022/10/27 03:03:38;;;;;;;17.67;14.57;;;11.90;94.10;;;;;;5034413;28;20041;-50
2022/10/27 03:06:11;;;;;;;24.65;16.02;;;11.90;94.10;;;;;;5053436;28;20071;-53
2022/10/27 03:08:38;;;;;;;24.88;17.27;;;11.90;94.20;;;;;;5054004;28;20091;-52
2022/10/27 03:11:05;;;;;;;19.77;15.75;;;11.90;94.20;;;;;;5055076;28;20094;-54
2022/10/27 03:13:32;;;;;;;20.63;15.52;;;11.90;94.30;;;;;;5036248;28;20025;-51
2022/10/27 03:15:59;;;;;;;33.83;16.52;;;11.90;94.30;;;;;;5054808;28;20021;-55
2022/10/27 03:18:24;;;;;;;22.50;16.08;;;11.90;94.30;;;;;;5054727;28;20029;-52
2022/10/27 03:20:55;;;;;;;21.17;15.02;;;11.90;94.20;;;;;;5051569;28;20851;-54
2022/10/27 03:23:22;;;;;;;18.52;14.32;;;11.90;94.20;;;;;;5031114;28;20025;-53
2022/10/27 03:25:52;;;;;;;23.30;15.50;;;11.90;94.30;;;;;;5054651;28;20039;-55
2022/10/27 03:28:19;;;;;;;20.05;15.23;;;11.90;94.30;;;;;;5053805;28;20312;-57
2022/10/27 03:30:45;;;;;;;26.23;16.33;;;11.90;94.30;;;;;;5054791;28;20103;-53
2022/10/27 03:33:12;;;;;;;22.27;14.85;;;11.90;94.30;;;;;;5045453;28;20017;-56
2022/10/27 03:35:40;;;;;;;20.33;15.25;;;11.90;94.30;;;;;;5036282;28;20078;-54
2022/10/27 03:38:11;;;;;;;20.95;15.10;;;11.90;94.30;;;;;;5035005;28;20033;-49
2022/10/27 03:40:39;;;;;;;20.02;14.65;;;11.90;94.30;;;;;;5036429;28;20496;-53
2022/10/27 03:43:07;;;;;;;22.63;14.80;;;11.90;94.30;;;;;;5052878;28;20029;-56
2022/10/27 03:45:34;;;;;;;20.70;14.10;;;11.90;94.30;;;;;;5054280;28;20871;-52
2022/10/27 03:48:06;;;;;;;19.85;13.30;;;11.80;94.30;;;;;;5049218;28;20029;-53
2022/10/27 03:50:33;;;;;;;15.80;13.80;;;11.80;94.40;;;;;;5052434;28;20055;-53
2022/10/27 03:53:02;;;;;;;20.98;15.27;;;11.90;94.50;;;;;;5047383;28;20090;-49
2022/10/27 03:55:30;;;;;;;22.00;15.68;;;11.90;94.50;;;;;;5034377;28;20036;-55
2022/10/27 03:57:58;;;;;;;16.83;13.23;;;11.90;94.50;;;;;;5034180;28;20167;-53
2022/10/27 04:00:27;;;;;;;19.90;14.13;;;11.90;94.50;;;;;;5034156;28;20383;-51
2022/10/27 04:02:53;;;;;;;20.77;15.20;;;11.90;94.50;;;;;;5042517;28;20194;-54
2022/10/27 04:05:22;;;;;;;20.00;14.50;;;11.90;94.50;;;;;;5052766;28;20358;-57
2022/10/27 04:07:49;;;;;;;20.33;14.45;;;11.90;94.40;;;;;;5039366;28;20446;-51
2022/10/27 04:10:16;;;;;;;18.70;13.75;;;11.90;94.40;;;;;;5038195;28;20100;-54
2022/10/27 04:12:54;;;;;;;19.35;14.63;;;11.90;94.50;;;;;;5052876;28;20094;-53
2022/10/27 04:15:23;;;;;;;25.67;15.70;;;11.90;94.50;;;;;;5053852;28;20534;-54
2022/10/27 04:17:55;;;;;;;17.90;13.67;;;11.90;94.50;;;;;;5036276;28;20029;-54
2022/10/27 04:20:25;;;;;;;18.30;14.68;;;11.90;94.50;;;;;;5052562;28;20283;-53
2022/10/27 04:22:53;;;;;;;;;;;11.90;94.60;;;;;;5053292;28;20134;-50
2022/10/27 04:25:20;;;;;;;20.63;15.45;;;11.90;94.60;;;;;;5052463;28;19904;-52
2022/10/27 04:27:45;;;;;;;17.80;14.82;;;12.00;94.60;;;;;;5053429;28;20033;-51
2022/10/27 04:30:15;;;;;;;18.33;15.57;;;12.00;94.60;;;;;;5053549;28;20024;-56
2022/10/27 04:32:42;;;;;;;;;;;12.00;94.60;;;;;;5053056;28;20028;-56
2022/10/27 04:35:12;;;;;;;19.23;14.05;;;12.00;94.60;;;;;;5053436;28;19912;-50
2022/10/27 04:37:42;;;;;;;21.45;15.00;;;12.00;94.60;;;;;;5051527;28;20047;-52
2022/10/27 04:40:09;;;;;;;16.98;14.52;;;11.90;94.50;;;;;;5053548;28;20366;-50
2022/10/27 04:42:36;;;;;;;19.45;14.50;;;11.90;94.50;;;;;;5052615;28;20037;-53
2022/10/27 04:45:03;;;;;;;18.88;14.07;;;11.90;94.50;;;;;;5053374;28;20024;-55
2022/10/27 04:47:28;;;;;;;18.38;15.43;;;11.90;94.60;;;;;;5052129;28;20037;-57
2022/10/27 04:49:55;;;;;;;18.75;15.75;;;11.90;94.50;;;;;;5049099;28;20102;-54
2022/10/27 04:52:22;;;;;;;20.92;13.70;;;12.00;94.60;;;;;;5045430;28;20013;-50
2022/10/27 04:54:49;;;;;;;18.90;14.88;;;12.00;94.60;;;;;;5052518;28;20072;-51
2022/10/27 04:57:18;;;;;;;17.35;14.38;;;12.00;94.60;;;;;;5053408;28;20044;-51
2022/10/27 04:59:45;;;;;;;21.38;14.60;;;12.00;94.60;;;;;;5052048;28;20033;-52
2022/10/27 05:02:11;;;;;;;18.33;16.05;;;12.00;94.60;;;;;;5053120;28;20044;-50
2022/10/27 05:04:38;;;;;;;20.98;14.32;;;12.00;94.60;;;;;;5048772;28;20385;-55
2022/10/27 05:07:05;;;;;;;20.10;14.55;;;12.00;94.60;;;;;;5051971;28;20079;-56
2022/10/27 05:09:34;;;;;;;20.17;15.95;;;12.00;94.60;;;;;;5033088;28;20108;-57
2022/10/27 05:12:00;;;;;;;19.95;13.90;;;12.10;94.70;;;;;;5040940;28;20028;-56
2022/10/27 05:14:27;;;;;;;21.50;14.38;;;12.10;94.70;;;;;;5052693;28;20025;-53
2022/10/27 05:16:54;;;;;;;25.92;15.93;;;12.10;94.70;;;;;;5052457;28;20037;-53
2022/10/27 05:19:21;;;;;;;21.67;15.98;;;12.10;94.70;;;;;;5042616;28;20390;-54
2022/10/27 05:21:47;;;;;;;22.98;14.10;;;12.10;94.70;;;;;;5049430;28;20033;-55
2022/10/27 05:24:16;;;;;;;17.05;14.90;;;12.10;94.60;;;;;;5052769;28;20035;-53
2022/10/27 05:26:43;;;;;;;16.95;14.48;;;12.00;94.70;;;;;;5051718;28;20048;-50
2022/10/27 05:29:12;;;;;;;18.08;14.43;;;12.00;94.60;;;;;;5052814;28;20057;-51
2022/10/27 05:31:38;;;;;;;21.13;13.55;;;12.00;94.60;;;;;;5052931;28;20025;-50
2022/10/27 05:34:05;;;;;;;20.42;14.80;;;12.00;94.60;;;;;;5049521;28;20078;-55
2022/10/27 05:36:31;;;;;;;18.65;14.48;;;12.00;94.60;;;;;;5046868;28;20071;-52
2022/10/27 05:38:59;;;;;;;17.50;14.25;;;12.00;94.60;;;;;;5035471;28;20049;-53
2022/10/27 05:41:26;;;;;;;20.15;14.90;;;12.00;94.70;;;;;;5051876;28;20032;-53
2022/10/27 05:43:55;;;;;;;20.33;15.48;;;11.90;94.70;;;;;;5051781;28;20079;-56
2022/10/27 05:46:22;;;;;;;24.20;16.93;;;12.00;94.70;;;;;;5052612;28;20041;-54
2022/10/27 05:48:47;;;;;;;22.48;16.20;;;12.00;94.70;;;;;;5051841;28;20362;-53
2022/10/27 05:51:14;;;;;;;23.20;17.23;;;12.00;94.70;;;;;;5047046;28;20100;-53
2022/10/27 05:53:40;;;;;;;29.35;17.90;;;12.00;94.70;;;;;;5051415;28;20036;-51
2022/10/27 05:56:07;;;;;;;25.75;17.98;;;12.10;94.70;;;;;;5052626;28;20071;-57
2022/10/27 05:58:34;;;;;;;22.55;17.30;;;12.10;94.70;;;;;;5034935;28;20029;-52
2022/10/27 06:01:00;;;;;;;23.55;17.20;;;12.00;94.70;;;;;;5044359;28;20053;-53
2022/10/27 06:03:29;;;;;;;25.80;17.38;;;12.00;94.70;;;;;;5035224;28;20422;-55
2022/10/27 06:05:59;;;;;;;23.08;16.48;;;12.00;94.70;;;;;;5049951;28;20037;-52
2022/10/27 06:08:27;;;;;;;24.67;16.63;;;12.00;94.70;;;;;;5036177;28;20520;-56
2022/10/27 06:10:55;;;;;;;23.33;15.45;;;12.00;94.70;;;;;;5036194;28;20026;-55
2022/10/27 06:13:26;;;;;;;20.58;17.08;;;12.00;94.70;;;;;;5036172;28;20092;-54
2022/10/27 06:15:53;;;;;;;22.75;17.00;;;12.00;94.70;;;;;;5044497;28;20029;-55
2022/10/27 06:18:20;;;;;;;20.75;15.75;;;12.00;94.70;;;;;;5055147;28;20021;-56
2022/10/27 06:20:47;;;;;;;25.45;17.13;;;12.00;94.70;;;;;;5055034;28;20025;-56
2022/10/27 06:23:12;;;;;;;20.75;15.48;;;12.00;94.70;;;;;;5035927;28;20033;-52
2022/10/27 06:25:39;;;;;;;19.92;16.35;;;12.00;94.70;;;;;;5035992;28;20438;-56
2022/10/27 06:28:06;;;;;;;23.73;16.92;;;12.00;94.70;;;;;;5035852;28;20032;-53
2022/10/27 06:30:33;;;;;;;19.73;16.27;;;12.00;94.70;;;;;;5018369;28;20025;-56
2022/10/27 06:33:01;;;;;;;19.98;14.98;;;12.00;94.70;;;;;;5035565;28;20087;-56
2022/10/27 06:35:27;;;;;;;24.52;16.35;;;12.00;94.70;;;;;;5034836;28;20443;-54
2022/10/27 06:37:54;;;;;;;24.45;17.38;;;12.00;94.70;;;;;;5052323;28;20039;-53
2022/10/27 06:40:21;;;;;;;18.88;15.88;;;12.00;94.70;;;;;;5055749;28;20040;-55
2022/10/27 06:42:49;;;;;;;23.23;16.80;;;12.10;94.70;;;;;;5055568;28;20462;-57
2022/10/27 06:45:19;;;;;;;20.85;15.75;;;12.10;94.80;;;;;;5034821;28;20033;-54
2022/10/27 06:47:58;;;;;;;22.58;15.85;;;12.10;94.70;;;;;;5055172;28;20462;-57
2022/10/27 06:50:25;;;;;;;22.80;16.63;;;12.10;94.70;;;;;;5032715;28;20081;-55
2022/10/27 06:52:52;;;;;;;20.27;15.85;;;12.10;94.70;;;;;;5015112;28;20025;-52
2022/10/27 06:55:21;;;;;;;22.55;16.60;;;12.10;94.70;;;;;;5035555;28;20035;-56
2022/10/27 06:57:48;;;;;;;19.73;16.00;;;12.20;94.70;;;;;;5033480;28;20473;-51
2022/10/27 07:00:16;;;;;;;21.85;16.85;;;12.20;94.70;;;;;;5034340;28;20390;-55
2022/10/27 07:02:43;;;;;;;20.10;15.50;;;12.20;94.70;;;;;;5033958;28;20029;-56
2022/10/27 07:05:10;;;;;;;24.08;17.52;;;12.20;94.70;;;;;;5034282;28;20056;-54
2022/10/27 07:07:37;;;;;;;25.05;18.08;;;12.30;94.80;;;;;;5034211;28;20040;-55
2022/10/27 07:10:07;;;;;;;20.15;16.60;;;12.30;94.80;;;;;;5034161;28;20025;-53
2022/10/27 07:12:34;;;;;;;22.63;17.60;;;12.40;94.70;;;;;;5033130;28;20088;-56
2022/10/27 07:15:00;;;;;;;22.08;16.35;;;12.40;94.80;;;;;;5035217;28;20087;-52
2022/10/27 07:17:26;;;;;;;21.55;16.55;;;12.50;94.80;;;;;;5034461;28;20382;-53
2022/10/27 07:19:53;;;;;;;24.40;17.85;;;12.50;94.70;;;;;;5022253;28;20066;-56
2022/10/27 07:22:20;;;;;;;24.95;16.92;;;12.60;94.80;;;;;;5026536;28;20517;-53
2022/10/27 07:24:47;;;;;;;21.20;17.15;;;12.60;94.70;;;;;;5034984;28;20393;-54
2022/10/27 07:27:13;;;;;;;22.50;17.30;;;12.70;94.80;;;;;;5033617;28;20034;-51
2022/10/27 07:29:43;;;;;;;21.50;16.90;;;12.70;94.80;;;;;;5034676;28;20053;-56
2022/10/27 07:32:09;;;;;;;25.50;17.77;;;12.90;94.80;;;;;;5034724;28;20029;-52
2022/10/27 07:34:35;;;;;;;22.42;17.50;;;12.90;94.70;;;;;;5032372;28;20026;-51
2022/10/27 07:37:02;;;;;;;22.88;17.88;;;12.90;94.70;;;;;;5033717;28;20053;-50
2022/10/27 07:39:28;;;;;;;22.83;16.65;;;13.00;94.70;;;;;;5028901;28;20606;-55
2022/10/27 07:41:56;;;;;;;21.58;17.45;;;13.20;94.80;;;;;;5017217;28;20041;-52
2022/10/27 07:44:22;;;;;;;28.10;18.42;;;13.30;94.70;;;;;;5013472;28;20033;-52
2022/10/27 07:46:49;;;;;;;24.88;17.63;;;13.40;94.70;;;;;;5014331;28;20034;-50
2022/10/27 07:49:16;;;;;;;25.67;17.42;;;13.50;94.70;;;;;;5017294;28;20473;-49
2022/10/27 07:51:42;;;;;;;23.25;16.30;;;13.70;94.60;;;;;;5034034;28;20472;-49
2022/10/27 07:54:08;;;;;;;19.35;15.15;;;13.80;94.50;;;;;;5031671;28;20033;-48
2022/10/27 07:56:36;;;;;;;19.27;15.18;;;13.90;94.40;;;;;;5034435;28;20040;-48
2022/10/27 07:59:05;;;;;;;27.63;15.55;;;14.00;94.30;;;;;;5050027;28;20456;-49
2022/10/27 08:01:32;;;;;;;19.95;15.65;;;14.20;94.30;;;;;;5033195;28;20040;-49
2022/10/27 08:04:02;;;;;;;15.85;13.32;;;14.20;94.10;;;;;;5031943;28;20059;-51
2022/10/27 08:06:29;;;;;;;;;;;14.20;93.90;;;;;;5032685;28;20036;-48
2022/10/27 08:08:59;;;;;;;21.25;15.18;;;14.20;93.80;;;;;;5033933;28;19904;-49
2022/10/27 08:11:25;;;;;;;17.85;14.75;;;14.30;93.60;;;;;;5033848;28;20104;-48
2022/10/27 08:13:55;;;;;;;17.88;14.65;;;14.40;93.60;;;;;;5033806;28;20049;-48
2022/10/27 08:16:24;;;;;;;20.45;13.95;;;14.40;93.40;;;;;;5033467;28;20037;-50
2022/10/27 08:18:51;;;;;;;21.38;14.13;;;14.50;93.30;;;;;;5033691;28;20080;-50
2022/10/27 08:21:18;;;;;;;24.58;12.43;;;14.50;93.10;;;;;;5032938;28;20334;-48
2022/10/27 08:23:47;;;;;;;15.00;12.27;;;14.70;93.10;;;;;;5032639;28;20455;-49
2022/10/27 08:26:14;;;;;;;20.50;13.02;;;14.80;93.00;;;;;;5049300;28;20039;-48
2022/10/27 08:28:40;;;;;;;13.25;10.85;;;14.90;92.80;;;;;;5033142;28;20361;-48
2022/10/27 08:31:07;;;;;;;16.83;12.50;;;14.90;92.60;;;;;;5032503;28;20043;-50
2022/10/27 08:33:36;;;;;;;13.10;10.48;;;14.90;92.50;;;;;;5033423;28;20061;-48
2022/10/27 08:36:06;;;;;;;24.13;11.48;;;14.90;92.10;;;;;;5032842;28;20025;-48
2022/10/27 08:38:34;;;;;;;12.07;10.25;;;14.90;92.00;;;;;;5032401;28;20116;-47
2022/10/27 08:41:19;;;;;;;17.58;10.88;;;14.90;91.80;;;;;;5032080;28;20013;-50
2022/10/27 08:44:03;;;;;;;14.50;10.23;;;15.00;91.60;;;;;;5033423;28;20013;-51
2022/10/27 08:46:55;;;;;;;13.20;11.43;;;15.00;91.50;;;;;;5031887;28;20036;-48
2022/10/27 08:49:44;;;;;;;14.35;10.48;;;15.10;91.60;;;;;;5042631;28;20144;-47
2022/10/27 08:52:34;;;;;;;14.07;10.32;;;15.20;91.60;;;;;;5053182;28;20013;-47
2022/10/27 08:55:44;;;;;;;18.70;11.65;;;15.40;91.60;;;;;;5052785;28;20035;-50
2022/10/27 08:58:16;;;;;;;14.10;10.05;;;15.40;91.30;;;;;;5033054;28;20061;-47
2022/10/27 09:01:01;;;;;;;12.55;10.63;;;15.50;91.10;;;;;;5052341;28;20067;-48
2022/10/27 09:03:41;;;;;;;13.43;9.95;;;15.50;91.10;;;;;;5051977;28;20155;-49
2022/10/27 09:06:09;;;;;;;10.57;9.48;;;15.60;91.20;;;;;;5051290;28;20035;-48
2022/10/27 09:08:54;;;;;;;16.80;10.35;;;15.80;90.80;;;;;;5052755;28;20021;-48
2022/10/27 09:11:22;;;;;;;18.42;9.93;;;15.90;90.20;;;;;;5052493;28;20064;-48
2022/10/27 09:14:12;;;;;;;14.38;9.85;;;16.00;90.00;;;;;;5051312;28;20025;-48
2022/10/27 09:16:43;;;;;;;14.23;9.93;;;16.20;90.10;;;;;;5052404;28;20079;-50
2022/10/27 09:19:26;;;;;;;13.73;9.85;;;16.30;89.60;;;;;;5051907;28;20123;-50
2022/10/27 09:21:53;;;;;;;11.90;10.60;;;16.40;89.20;;;;;;5023234;28;20033;-49
2022/10/27 09:24:24;;;;;;;10.75;9.63;;;16.50;88.70;;;;;;5043534;28;20034;-50
2022/10/27 09:26:54;;;;;;;19.85;9.20;;;16.60;88.50;;;;;;5040316;28;20366;-52
2022/10/27 09:29:23;;;;;;;11.23;9.07;;;16.60;88.30;;;;;;5034307;28;20453;-53
2022/10/27 09:32:03;;;;;;;17.48;10.20;;;16.60;88.20;;;;;;5052254;28;20033;-51
2022/10/27 09:34:47;;;;;;;21.90;11.05;;;16.50;87.90;;;;;;5052136;28;20025;-49
2022/10/27 09:37:15;;;;;;;14.95;9.57;;;16.40;88.30;;;;;;5052645;28;20447;-49
2022/10/27 09:39:46;;;;;;;13.57;9.32;;;16.50;88.80;;;;;;5036796;28;20043;-49
2022/10/27 09:42:14;;;;;;;14.13;11.10;;;16.70;88.90;;;;;;5056931;28;20024;-50
2022/10/27 09:44:55;;;;;;;10.18;9.07;;;16.80;88.10;;;;;;5055668;28;20025;-49
2022/10/27 09:47:24;;;;;;;13.70;9.90;;;16.90;87.90;;;;;;5056598;28;20111;-51
2022/10/27 09:49:54;;;;;;;14.00;9.17;;;17.00;88.20;;;;;;5054667;28;20056;-50
2022/10/27 09:52:42;;;;;;;14.98;9.88;;;17.20;87.70;;;;;;5038837;28;20275;-52
2022/10/27 09:55:10;;;;;;;12.98;8.70;;;17.30;87.20;;;;;;5056529;28;20025;-51
2022/10/27 09:57:39;;;;;;;18.48;9.20;;;17.40;87.30;;;;;;5055510;28;20043;-49
2022/10/27 10:00:25;;;;;;;11.73;8.75;;;17.40;86.80;;;;;;5056476;28;20057;-52
2022/10/27 10:03:20;;;;;;;14.98;9.73;;;17.60;86.40;;;;;;5055393;28;20343;-51
2022/10/27 10:06:17;;;;;;;12.57;7.75;;;17.70;86.10;;;;;;5035381;28;20130;-49
2022/10/27 10:08:43;;;;;;;14.13;7.70;;;17.90;86.00;;;;;;5055345;28;20029;-49
2022/10/27 10:11:21;;;;;;;15.50;9.13;;;17.90;85.20;;;;;;5038435;28;20517;-50
2022/10/27 10:14:03;;;;;;;11.25;7.80;;;17.90;84.80;;;;;;5055088;28;20029;-49
2022/10/27 10:16:32;;;;;;;9.85;6.95;;;17.90;85.30;;;;;;5056186;28;20032;-50
2022/10/27 10:19:07;;;;;;;14.07;7.60;;;17.90;85.00;;;;;;5055851;28;20051;-49
2022/10/27 10:22:02;;;;;;;11.98;7.57;;;18.00;85.00;;;;;;5054672;28;20043;-48
2022/10/27 10:24:35;;;;;;;10.13;7.10;;;18.10;84.20;;;;;;5029925;28;20037;-49
2022/10/27 10:27:05;;;;;;;12.10;7.13;;;18.10;84.10;;;;;;5054729;28;20127;-49
2022/10/27 10:29:44;;;;;;;12.90;7.57;;;18.20;84.30;;;;;;5055787;28;20098;-51
2022/10/27 10:32:34;;;;;;;12.20;6.55;;;18.20;83.80;;;;;;5054824;28;20028;-49
2022/10/27 10:35:01;;;;;;;;;;;18.20;83.10;;;;;;5054178;28;20048;-49
2022/10/27 10:37:41;;;;;;;11.18;5.97;;;18.30;83.10;;;;;;5055891;28;19982;-48
2022/10/27 10:40:08;;;;;;;;;;;18.40;83.20;;;;;;5055122;28;20687;-49
2022/10/27 10:42:35;;;;;;;9.02;6.32;;;18.40;82.80;;;;;;5055631;28;20318;-48
2022/10/27 10:45:26;;;;;;;10.98;6.60;;;18.40;82.20;;;;;;5054709;28;20044;-49
2022/10/27 10:48:20;;;;;;;8.10;5.20;;;18.40;82.40;;;;;;5054631;28;20575;-49
2022/10/27 10:50:51;;;;;;;7.97;5.20;;;18.40;82.10;;;;;;5050439;28;20068;-49
2022/10/27 10:53:28;;;;;;;8.50;5.22;;;18.40;82.20;;;;;;5054034;28;20029;-48
2022/10/27 10:56:00;;;;;;;8.80;5.43;;;18.40;82.20;;;;;;5054950;28;20021;-52
2022/10/27 10:58:30;;;;;;;11.38;5.55;;;18.40;82.10;;;;;;5037239;28;20084;-48
2022/10/27 11:01:02;;;;;;;8.50;5.78;;;18.40;83.10;;;;;;5054030;28;20071;-50
2022/10/27 11:03:50;;;;;;;10.40;5.80;;;18.40;82.60;;;;;;5054632;28;20326;-52
2022/10/27 11:06:19;;;;;;;10.02;5.72;;;18.40;82.80;;;;;;5036407;28;20032;-48
2022/10/27 11:09:02;;;;;;;8.00;4.60;;;18.40;83.00;;;;;;5055199;28;20109;-48
2022/10/27 11:11:41;;;;;;;10.93;4.82;;;18.40;82.40;;;;;;5055067;28;20021;-48
2022/10/27 11:14:14;;;;;;;8.33;4.60;;;18.40;82.00;;;;;;5037864;28;20486;-49
2022/10/27 11:16:50;;;;;;;8.10;4.03;;;18.50;82.60;;;;;;5055056;28;20462;-48
2022/10/27 11:19:19;;;;;;;7.68;4.80;;;18.60;82.50;;;;;;5054000;28;20029;-48
2022/10/27 11:22:04;;;;;;;8.57;5.27;;;18.70;82.50;;;;;;5032228;28;20029;-49
2022/10/27 11:24:51;;;;;;;10.20;4.78;;;18.70;81.50;;;;;;5034943;28;20041;-50
2022/10/27 11:27:26;;;;;;;6.28;3.90;;;18.70;82.00;;;;;;5034886;28;20035;-48
2022/10/27 11:30:06;;;;;;;11.30;4.32;;;18.70;81.60;;;;;;5017204;28;20036;-48
2022/10/27 11:32:54;;;;;;;6.88;3.40;;;18.70;81.40;;;;;;5034969;28;20112;-47
2022/10/27 11:35:47;;;;;;;8.25;3.45;;;18.80;81.40;;;;;;5050485;28;20056;-48
2022/10/27 11:38:49;;;;;;;7.32;3.80;;;18.80;81.00;;;;;;5031321;28;20033;-48
2022/10/27 11:42:15;;;;;;;8.18;3.80;;;18.70;80.40;;;;;;5034885;28;20034;-47
2022/10/27 11:45:12;;;;;;;8.82;4.07;;;18.70;80.40;;;;;;4992163;28;20034;-47
2022/10/27 11:47:52;;;;;;;7.57;3.70;;;18.50;80.50;;;;;;4992959;28;20447;-47
2022/10/27 11:50:34;;;;;;;7.40;3.72;;;18.60;81.10;;;;;;5021586;28;20133;-48
2022/10/27 11:53:04;;;;;;;10.60;5.68;;;18.60;81.50;;;;;;5032720;28;20036;-48
2022/10/27 11:55:54;;;;;;;;;;;18.60;81.50;;;;;;5015249;28;20022;-53
2022/10/27 11:58:44;;;;;;;11.02;5.63;;;18.70;81.20;;;;;;5007530;28;19920;-48
2022/10/27 12:01:32;;;;;;;14.27;5.97;;;18.70;81.60;;;;;;5034256;28;20029;-49
2022/10/27 12:04:29;;;;;;;13.30;6.35;;;18.70;81.50;;;;;;5015716;28;20447;-48
2022/10/27 12:07:27;;;;;;;8.13;6.25;;;18.70;81.10;;;;;;5033242;28;20025;-49
2022/10/27 12:10:11;;;;;;;9.48;6.03;;;18.70;81.60;;;;;;5013247;28;20033;-48
2022/10/27 12:12:45;;;;;;;8.02;5.90;;;18.70;81.80;;;;;;4996920;28;20017;-49
2022/10/27 12:15:38;;;;;;;9.90;7.22;;;18.60;81.60;;;;;;4997621;28;20037;-47
2022/10/27 12:18:37;;;;;;;11.18;6.45;;;18.50;82.50;;;;;;5029073;28;20049;-49
2022/10/27 12:21:35;;;;;;;7.53;6.63;;;18.50;82.30;;;;;;5014115;28;20351;-48
2022/10/27 12:24:22;;;;;;;10.77;6.57;;;18.50;82.80;;;;;;5024973;28;20029;-48
2022/10/27 12:27:12;;;;;;;11.52;7.15;;;18.50;82.90;;;;;;5033046;28;20104;-47
2022/10/27 12:29:47;;;;;;;13.38;7.82;;;18.40;83.10;;;;;;4987399;28;20139;-47
2022/10/27 12:32:41;;;;;;;16.83;7.70;;;18.40;83.30;;;;;;5031524;28;20032;-47
2022/10/27 12:35:39;;;;;;;10.90;7.15;;;18.40;83.60;;;;;;5017363;28;20455;-50
2022/10/27 12:38:31;;;;;;;10.43;7.03;;;18.30;83.80;;;;;;5032983;28;20037;-48
2022/10/27 12:41:28;;;;;;;15.27;8.10;;;18.30;83.80;;;;;;5031773;28;20052;-47
2022/10/27 12:44:31;;;;;;;12.95;7.50;;;18.30;84.10;;;;;;5033055;28;20340;-48
2022/10/27 12:47:36;;;;;;;10.35;6.03;;;18.30;84.10;;;;;;5031764;28;20178;-48
2022/10/27 12:50:31;;;;;;;9.82;5.82;;;18.30;83.90;;;;;;5038349;28;20045;-47
2022/10/27 12:53:02;;;;;;;8.35;5.72;;;18.30;83.70;;;;;;5052996;28;20351;-47
2022/10/27 12:56:16;;;;;;;9.60;5.25;;;18.30;83.70;;;;;;5030726;28;20509;-47
2022/10/27 12:58:50;;;;;;;8.57;5.28;;;18.40;83.20;;;;;;5029082;28;20081;-50
2022/10/27 13:01:46;;;;;;;8.05;5.05;;;18.40;83.40;;;;;;5035279;28;20104;-48
2022/10/27 13:04:42;;;;;;;14.82;5.55;;;18.30;83.40;;;;;;5052447;28;20025;-47
2022/10/27 13:07:32;;;;;;;7.15;4.50;;;18.40;83.40;;;;;;5052035;28;20112;-47